Time;durP1;ratioP1;P1;durP2;ratioP2;P2;SDS_P1;SDS_P2;PMS_P1;PMS_P2;Temp;Humidity;BMP_temperature;BMP_pressure;BME280_temperature;BME280_humidity;BME280_pressure;Samples;Min_cycle;Max_cycle;Signal;HPM_P1;HPM_P2
2023/03/15 00:01:00;;;;;;;;;;;;;;;16.29;44.46;100178.06;4987545;28;1397;-43
2023/03/15 00:03:26;;;;;;;;;;;;;;;17.81;42.02;100175.13;5000435;28;951;-44
2023/03/15 00:05:51;;;;;;;;;;;;;;;16.62;44.14;100161.91;5000554;28;1156;-41
2023/03/15 00:08:17;;;;;;;;;;;;;;;16.63;44.52;100154.47;5000128;28;1914;-40
2023/03/15 00:10:43;;;;;;;;;;;;;;;17.36;43.08;100160.84;5000136;28;1064;-44
2023/03/15 00:13:08;;;;;;;;;;;;;;;16.54;44.20;100157.03;5000722;28;1052;-45
2023/03/15 00:15:34;;;;;;;;;;;;;;;16.90;43.87;100160.28;5000168;28;967;-43
2023/03/15 00:18:02;;;;;;;;;;;;;;;16.99;43.66;100154.16;5000410;28;1006;-44
2023/03/15 00:20:28;;;;;;;;;;;;;;;16.45;44.23;100147.78;5000813;28;1103;-40
2023/03/15 00:22:53;;;;;;;;;;;;;;;17.81;42.13;100144.88;4999940;28;1156;-41
2023/03/15 00:25:19;;;;;;;;;;;;;;;16.75;43.98;100152.16;5000298;28;1024;-38
2023/03/15 00:27:44;;;;;;;;;;;;;;;17.28;43.26;100141.16;4999183;28;1973;-39
2023/03/15 00:30:10;;;;;;;;;;;;;;;17.61;42.34;100132.19;5000304;28;1009;-39
2023/03/15 00:32:35;;;;;;;;;;;;;;;16.71;43.92;100135.44;4999920;28;1028;-41
2023/03/15 00:35:01;;;;;;;;;;;;;;;16.45;44.12;100134.84;5000116;28;1029;-44
2023/03/15 00:37:27;;;;;;;;;;;;;;;17.34;42.93;100121.84;4999467;28;1099;-44
2023/03/15 00:39:54;;;;;;;;;;;;;;;16.58;44.18;100125.16;4999636;28;1089;-46
2023/03/15 00:42:20;;;;;;;;;;;;;;;17.27;43.51;100116.72;5000339;28;1020;-41
2023/03/15 00:44:46;;;;;;;;;;;;;;;17.16;43.33;100113.28;4997987;28;1148;-41
2023/03/15 00:47:12;;;;;;;;;;;;;;;16.50;44.27;100112.06;4999845;28;1152;-40
2023/03/15 00:49:37;;;;;;;;;;;;;;;17.75;42.33;100102.03;4986808;28;1911;-38
2023/03/15 00:52:04;;;;;;;;;;;;;;;16.74;44.23;100098.34;4997784;28;1644;-43
2023/03/15 00:54:32;;;;;;;;;;;;;;;17.86;41.90;100091.72;4999498;28;1199;-41
2023/03/15 00:57:01;;;;;;;;;;;;;;;17.66;42.00;100085.41;4998610;28;1100;-38
2023/03/15 00:59:33;;;;;;;;;;;;;;;16.74;43.91;100079.94;4986685;28;1113;-41
2023/03/15 01:02:02;;;;;;;;;;;;;;;16.55;43.89;100071.66;4999587;28;1028;-42
2023/03/15 01:04:28;;;;;;;;;;;;;;;16.36;43.95;100065.25;4999662;28;1072;-40
2023/03/15 01:06:53;;;;;;;;;;;;;;;16.26;43.74;100063.44;4998442;28;1220;-40
2023/03/15 01:09:20;;;;;;;;;;;;;;;17.27;42.97;100064.50;5014254;28;1918;-41
2023/03/15 01:11:45;;;;;;;;;;;;;;;16.60;44.18;100052.38;4998124;28;1068;-39
2023/03/15 01:14:11;;;;;;;;;;;;;;;16.27;44.64;100050.53;4997576;28;1061;-43
2023/03/15 01:16:36;;;;;;;;;;;;;;;17.54;42.64;100046.53;5004625;28;1238;-42
2023/03/15 01:19:02;;;;;;;;;;;;;;;16.48;44.59;100048.38;4999205;28;1123;-46
2023/03/15 01:21:27;;;;;;;;;;;;;;;16.32;44.29;100053.22;4999337;28;1079;-41
2023/03/15 01:23:53;;;;;;;;;;;;;;;16.69;44.16;100051.72;4999159;28;1032;-42
2023/03/15 01:26:20;;;;;;;;;;;;;;;16.75;44.16;100048.63;4997747;28;1289;-43
2023/03/15 01:28:45;;;;;;;;;;;;;;;17.24;43.41;100049.44;4997176;28;1981;-45
2023/03/15 01:31:18;;;;;;;;;;;;;;;18.67;40.25;100041.06;4997865;28;1121;-41
2023/03/15 01:33:44;;;;;;;;;;;;;;;17.02;43.63;100039.00;4998955;28;1119;-44
2023/03/15 01:36:10;;;;;;;;;;;;;;;16.65;44.07;100039.69;4997467;28;1393;-40
2023/03/15 01:38:35;;;;;;;;;;;;;;;17.60;42.61;100034.38;4998708;28;1128;-39
2023/03/15 01:41:01;;;;;;;;;;;;;;;16.74;44.66;100038.75;4998686;28;1110;-40
2023/03/15 01:43:27;;;;;;;;;;;;;;;18.75;40.28;100024.66;4997379;28;1207;-43
2023/03/15 01:46:12;;;;;;;;;;;;;;;18.13;40.98;100028.56;4997292;28;1127;-40
2023/03/15 01:48:54;;;;;;;;;;;;;;;17.00;43.42;100027.50;4997480;28;1923;-42
2023/03/15 01:51:25;;;;;;;;;;;;;;;16.62;43.93;100030.16;4996788;28;1175;-42
2023/03/15 01:54:17;;;;;;;;;;;;;;;16.53;43.63;100032.69;5008255;28;1131;-43
2023/03/15 01:56:44;;;;;;;;;;;;;;;17.14;43.47;100041.34;4984312;28;1299;-43
2023/03/15 01:59:13;;;;;;;;;;;;;;;16.57;44.25;100032.94;4997309;28;1128;-40
2023/03/15 02:01:38;;;;;;;;;;;;;;;16.45;44.08;100021.53;4996649;28;1194;-41
2023/03/15 02:04:06;;;;;;;;;;;;;;;17.38;43.03;100013.78;4997025;28;1037;-39
2023/03/15 02:06:35;;;;;;;;;;;;;;;16.72;44.30;100016.28;4996096;28;1662;-42
2023/03/15 02:09:04;;;;;;;;;;;;;;;16.36;44.31;100022.16;4996962;28;1985;-42
2023/03/15 02:11:33;;;;;;;;;;;;;;;17.03;43.86;100015.13;4996532;28;1219;-43
2023/03/15 02:13:59;;;;;;;;;;;;;;;16.68;44.34;100015.22;4996885;28;1327;-43
2023/03/15 02:16:26;;;;;;;;;;;;;;;16.42;44.44;100017.44;4977408;28;1140;-41
2023/03/15 02:18:57;;;;;;;;;;;;;;;17.80;42.18;100016.72;4984424;28;1246;-43
2023/03/15 02:21:27;;;;;;;;;;;;;;;16.60;44.51;100019.44;4998279;28;1099;-38
2023/03/15 02:24:13;;;;;;;;;;;;;;;17.16;43.96;100010.81;4996585;28;1058;-42
2023/03/15 02:26:43;;;;;;;;;;;;;;;16.77;44.39;100016.22;4971093;28;1281;-41
2023/03/15 02:29:09;;;;;;;;;;;;;;;16.70;44.61;100013.00;4977097;28;2292;-44
2023/03/15 02:31:36;;;;;;;;;;;;;;;17.79;42.23;100020.59;4995351;28;1017;-39
2023/03/15 02:34:03;;;;;;;;;;;;;;;16.67;44.28;100015.53;4997873;28;1040;-45
2023/03/15 02:36:30;;;;;;;;;;;;;;;16.45;44.37;100021.53;4997764;28;1040;-40
2023/03/15 02:38:57;;;;;;;;;;;;;;;17.78;42.32;100008.78;4996940;28;1277;-45
2023/03/15 02:41:36;;;;;;;;;;;;;;;16.69;44.42;100018.78;5006324;28;1052;-41
2023/03/15 02:44:03;;;;;;;;;;;;;;;16.66;44.77;100013.88;4997417;28;1264;-40
2023/03/15 02:46:29;;;;;;;;;;;;;;;16.85;44.01;100009.25;4985020;28;1152;-45
2023/03/15 02:48:55;;;;;;;;;;;;;;;16.44;44.70;100009.75;4996449;28;1971;-41
2023/03/15 02:51:23;;;;;;;;;;;;;;;16.42;44.30;100011.97;4997048;28;1012;-40
2023/03/15 02:53:50;;;;;;;;;;;;;;;17.55;42.53;100006.94;5029270;28;1313;-42
2023/03/15 02:56:15;;;;;;;;;;;;;;;16.61;44.60;100012.03;4997748;28;1096;-39
2023/03/15 02:58:44;;;;;;;;;;;;;;;16.34;44.52;100016.16;4997370;28;1059;-44
2023/03/15 03:01:14;;;;;;;;;;;;;;;17.81;42.16;100006.53;4996338;28;1337;-44
2023/03/15 03:03:40;;;;;;;;;;;;;;;16.70;44.26;100013.00;4997107;28;1085;-43
2023/03/15 03:06:06;;;;;;;;;;;;;;;16.40;44.42;100017.75;4997573;28;1029;-43
2023/03/15 03:08:33;;;;;;;;;;;;;;;16.15;44.27;100024.31;4996656;28;1918;-41
2023/03/15 03:10:59;;;;;;;;;;;;;;;17.39;43.03;100017.34;4996316;28;1594;-43
2023/03/15 03:13:24;;;;;;;;;;;;;;;16.62;44.51;100010.94;4995459;28;1061;-43
2023/03/15 03:15:57;;;;;;;;;;;;;;;16.58;44.58;100020.84;4995629;28;1064;-42
2023/03/15 03:18:26;;;;;;;;;;;;;;;17.40;42.89;100014.31;4994899;28;1250;-42
2023/03/15 03:20:54;;;;;;;;;;;;;;;16.43;44.52;100014.41;4997128;28;1123;-42
2023/03/15 03:23:19;;;;;;;;;;;;;;;16.34;44.68;100013.44;4996974;28;1120;-43
2023/03/15 03:25:45;;;;;;;;;;;;;;;17.01;43.66;100009.94;4996957;28;1137;-44
2023/03/15 03:28:10;;;;;;;;;;;;;;;17.10;43.92;100016.38;4995525;28;1965;-39
2023/03/15 03:30:36;;;;;;;;;;;;;;;18.85;39.91;100014.56;4995919;28;1535;-41
2023/03/15 03:33:01;;;;;;;;;;;;;;;17.27;43.17;100010.38;4995599;28;1208;-40
2023/03/15 03:35:27;;;;;;;;;;;;;;;16.70;43.95;100017.69;5028349;28;1222;-44
2023/03/15 03:37:54;;;;;;;;;;;;;;;16.41;44.30;100008.41;4996065;28;1344;-42
2023/03/15 03:40:28;;;;;;;;;;;;;;;17.64;42.57;100004.34;4995577;28;1406;-43
2023/03/15 03:42:54;;;;;;;;;;;;;;;16.65;44.19;100009.50;4996797;28;1052;-43
2023/03/15 03:45:19;;;;;;;;;;;;;;;16.73;44.53;100009.69;4995336;28;1217;-42
2023/03/15 03:47:50;;;;;;;;;;;;;;;16.98;43.74;100006.94;4995685;28;1898;-43
2023/03/15 03:50:16;;;;;;;;;;;;;;;16.46;44.32;100012.19;4995336;28;1250;-41
2023/03/15 03:52:42;;;;;;;;;;;;;;;16.18;44.51;100017.44;4996717;28;1013;-42
2023/03/15 03:55:12;;;;;;;;;;;;;;;16.03;44.06;100016.47;4995622;28;1133;-40
2023/03/15 03:57:39;;;;;;;;;;;;;;;17.62;42.51;100010.94;4995591;28;1380;-43
2023/03/15 04:00:08;;;;;;;;;;;;;;;17.00;43.95;100011.03;4997133;28;1170;-46
2023/03/15 04:02:42;;;;;;;;;;;;;;;18.78;39.85;100020.47;4996783;28;1062;-39
2023/03/15 04:05:10;;;;;;;;;;;;;;;17.91;41.48;100011.91;4994968;28;1375;-40
2023/03/15 04:07:36;;;;;;;;;;;;;;;17.05;43.57;100008.19;4995622;28;1266;-42
2023/03/15 04:10:01;;;;;;;;;;;;;;;16.73;43.76;100006.94;4995691;28;1911;-40
2023/03/15 04:12:28;;;;;;;;;;;;;;;16.88;43.94;100010.59;4995408;28;1260;-40
2023/03/15 04:14:55;;;;;;;;;;;;;;;17.04;43.63;99995.59;4995351;28;1231;-44
2023/03/15 04:17:23;;;;;;;;;;;;;;;17.38;42.87;99994.56;4995722;28;1181;-45
2023/03/15 04:19:48;;;;;;;;;;;;;;;18.55;40.37;99992.00;4994852;28;1165;-47
2023/03/15 04:22:20;;;;;;;;;;;;;;;17.10;43.19;99991.66;4995567;28;1272;-41
2023/03/15 04:25:11;;;;;;;;;;;;;;;16.74;43.81;99986.59;4996188;28;1315;-46
2023/03/15 04:27:57;;;;;;;;;;;;;;;17.21;42.89;99986.84;4996048;28;1906;-45
2023/03/15 04:30:46;;;;;;;;;;;;;;;16.65;44.05;99993.03;4998444;28;1401;-43
2023/03/15 04:33:32;;;;;;;;;;;;;;;17.66;42.29;100000.16;5000802;28;1287;-44
2023/03/15 04:36:19;;;;;;;;;;;;;;;16.75;43.99;99995.66;4999961;28;1056;-43
2023/03/15 04:39:05;;;;;;;;;;;;;;;17.31;42.99;99993.31;4989099;28;1369;-44
2023/03/15 04:41:43;;;;;;;;;;;;;;;16.91;43.71;99997.16;4999801;28;1025;-43
2023/03/15 04:44:19;;;;;;;;;;;;;;;16.38;44.16;99994.44;5015047;28;1261;-43
2023/03/15 04:47:13;;;;;;;;;;;;;;;16.23;44.09;99998.19;5015076;28;1142;-44
2023/03/15 04:50:08;;;;;;;;;;;;;;;16.90;43.73;99997.41;4994718;28;1959;-46
2023/03/15 04:52:44;;;;;;;;;;;;;;;16.92;43.82;99993.25;4999522;28;1025;-48
2023/03/15 04:55:28;;;;;;;;;;;;;;;18.49;40.18;99999.53;4999302;28;1025;-47
2023/03/15 04:58:10;;;;;;;;;;;;;;;16.94;43.43;100009.44;4999728;28;1124;-44
2023/03/15 05:00:54;;;;;;;;;;;;;;;16.48;44.18;100005.31;4999716;28;1127;-46
2023/03/15 05:03:33;;;;;;;;;;;;;;;17.31;42.90;99998.81;5011494;28;2000;-44
2023/03/15 05:06:20;;;;;;;;;;;;;;;17.14;43.52;99988.31;4999692;28;1219;-43
2023/03/15 05:09:05;;;;;;;;;;;;;;;19.00;39.44;100002.41;5014560;28;1975;-45
2023/03/15 05:12:00;;;;;;;;;;;;;;;17.28;42.91;99997.47;5001233;28;1319;-44
2023/03/15 05:14:47;;;;;;;;;;;;;;;16.75;43.68;99987.44;4998167;28;1208;-45
2023/03/15 05:17:27;;;;;;;;;;;;;;;17.33;42.79;99971.84;4991403;28;847;-45
2023/03/15 05:20:11;;;;;;;;;;;;;;;16.75;43.91;99976.44;5014196;28;1423;-45
2023/03/15 05:22:52;;;;;;;;;;;;;;;16.48;43.84;99966.06;4992495;28;1306;-45
2023/03/15 05:25:27;;;;;;;;;;;;;;;17.28;43.10;99967.25;4998256;28;1185;-44
2023/03/15 05:28:17;;;;;;;;;;;;;;;16.75;43.98;99955.28;4982192;28;1898;-44
2023/03/15 05:30:57;;;;;;;;;;;;;;;16.44;43.90;99960.34;5013721;28;1305;-41
2023/03/15 05:33:49;;;;;;;;;;;;;;;17.16;43.22;99964.13;4991410;28;1400;-45
2023/03/15 05:36:20;;;;;;;;;;;;;;;16.94;43.50;99965.50;4990873;28;1425;-43
2023/03/15 05:38:59;;;;;;;;;;;;;;;17.48;42.88;99971.59;4996951;28;1119;-45
2023/03/15 05:41:47;;;;;;;;;;;;;;;18.11;40.98;99958.44;4988235;28;1186;-45
2023/03/15 05:44:29;;;;;;;;;;;;;;;16.89;43.57;99947.19;4997597;28;1216;-44
2023/03/15 05:47:15;;;;;;;;;;;;;;;16.54;43.98;99946.50;4978042;28;1300;-48
2023/03/15 05:50:01;;;;;;;;;;;;;;;16.54;44.34;99942.97;4997167;28;1910;-43
2023/03/15 05:52:38;;;;;;;;;;;;;;;16.90;43.58;99940.59;4997336;28;1334;-47
2023/03/15 05:55:29;;;;;;;;;;;;;;;16.46;44.30;99941.66;4979621;28;1215;-43
2023/03/15 05:58:14;;;;;;;;;;;;;;;17.49;42.36;99939.41;4997282;28;1191;-44
2023/03/15 06:00:49;;;;;;;;;;;;;;;16.61;44.10;99948.91;4998656;28;1109;-42
2023/03/15 06:03:31;;;;;;;;;;;;;;;17.59;42.56;99931.81;4997226;28;1160;-43
2023/03/15 06:06:07;;;;;;;;;;;;;;;16.57;44.11;99929.44;4997078;28;1171;-45
2023/03/15 06:08:37;;;;;;;;;;;;;;;16.53;44.63;99922.09;4997089;28;1902;-43
2023/03/15 06:11:04;;;;;;;;;;;;;;;17.08;43.35;99913.41;4997024;28;1119;-44
2023/03/15 06:13:30;;;;;;;;;;;;;;;17.31;42.98;99916.38;4997063;28;1169;-46
2023/03/15 06:15:57;;;;;;;;;;;;;;;16.87;43.60;99907.38;4996834;28;1394;-42
2023/03/15 06:18:23;;;;;;;;;;;;;;;16.65;44.41;99908.78;4995695;28;1237;-45
2023/03/15 06:20:49;;;;;;;;;;;;;;;16.46;44.74;99911.47;4996557;28;1269;-44
2023/03/15 06:23:16;;;;;;;;;;;;;;;16.25;45.20;99908.16;4996907;28;1262;-46
2023/03/15 06:25:45;;;;;;;;;;;;;;;16.14;45.43;99903.91;4996249;28;1228;-44
2023/03/15 06:28:11;;;;;;;;;;;;;;;16.02;45.64;99907.03;4996841;28;1915;-44
2023/03/15 06:30:42;;;;;;;;;;;;;;;15.88;45.96;99901.47;4994237;28;1255;-46
2023/03/15 06:33:07;;;;;;;;;;;;;;;15.78;46.02;99890.56;5009740;28;1376;-44
2023/03/15 06:35:34;;;;;;;;;;;;;;;15.66;46.42;99880.00;4987506;28;1410;-47
2023/03/15 06:38:00;;;;;;;;;;;;;;;15.61;46.21;99877.28;4992680;28;1049;-44
2023/03/15 06:40:26;;;;;;;;;;;;;;;15.51;46.32;99878.22;4977215;28;1397;-44
2023/03/15 06:42:51;;;;;;;;;;;;;;;15.48;46.47;99878.78;4996603;28;871;-46
2023/03/15 06:45:19;;;;;;;;;;;;;;;15.35;46.70;99893.97;4996102;28;1383;-42
2023/03/15 06:47:45;;;;;;;;;;;;;;;15.30;47.08;99894.81;4996397;28;1441;-42
2023/03/15 06:50:12;;;;;;;;;;;;;;;15.53;46.47;99892.44;4996435;28;1918;-39
2023/03/15 06:52:37;;;;;;;;;;;;;;;17.11;42.61;99868.88;4996067;28;1462;-38
2023/03/15 06:55:03;;;;;;;;;;;;;;;16.50;43.79;99867.81;4996472;28;1291;-41
2023/03/15 06:57:29;;;;;;;;;;;;;;;15.87;45.42;99870.47;4996138;28;1166;-44
2023/03/15 06:59:55;;;;;;;;;;;;;;;15.69;45.88;99862.97;4983244;28;1414;-41
2023/03/15 07:02:21;;;;;;;;;;;;;;;15.53;46.32;99881.50;4985747;28;1084;-37
2023/03/15 07:04:46;;;;;;;;;;;;;;;15.40;46.53;99874.72;4983871;28;1224;-40
2023/03/15 07:07:12;;;;;;;;;;;;;;;15.29;46.89;99887.72;4997378;28;1119;-39
2023/03/15 07:09:38;;;;;;;;;;;;;;;15.19;46.98;99887.78;4997265;28;1921;-36
2023/03/15 07:12:03;;;;;;;;;;;;;;;15.78;45.85;99880.41;4984130;28;1259;-41
2023/03/15 07:14:29;;;;;;;;;;;;;;;17.19;42.52;99876.41;4997537;28;1110;-40
2023/03/15 07:16:54;;;;;;;;;;;;;;;16.40;44.13;99885.22;4991248;28;1156;-42
2023/03/15 07:19:20;;;;;;;;;;;;;;;15.85;45.21;99877.34;4997324;28;1030;-43
2023/03/15 07:21:45;;;;;;;;;;;;;;;15.61;46.12;99882.78;4996826;28;1078;-42
2023/03/15 07:24:11;;;;;;;;;;;;;;;15.43;46.53;99895.25;4997514;28;1267;-40
2023/03/15 07:26:36;;;;;;;;;;;;;;;15.33;46.62;99894.25;4997429;28;1275;-42
2023/03/15 07:29:02;;;;;;;;;;;;;;;15.81;45.38;99893.56;4996536;28;1918;-42
2023/03/15 07:31:27;;;;;;;;;;;;;;;17.21;42.23;99878.88;4995038;28;1117;-39
2023/03/15 07:33:53;;;;;;;;;;;;;;;16.30;44.07;99893.56;4986218;28;1052;-43
2023/03/15 07:36:21;;;;;;;;;;;;;;;15.77;45.58;99897.13;4991031;28;1072;-40
2023/03/15 07:38:46;;;;;;;;;;;;;;;15.55;46.15;99899.25;4996318;28;1025;-39
2023/03/15 07:41:12;;;;;;;;;;;;;;;15.44;46.27;99905.94;4995410;28;1087;-41
2023/03/15 07:43:43;;;;;;;;;;;;;;;15.42;46.39;99907.31;4994920;28;1165;-38
2023/03/15 07:46:13;;;;;;;;;;;;;;;17.01;42.65;99908.31;4994777;28;1393;-38
2023/03/15 07:48:38;;;;;;;;;;;;;;;16.47;43.73;99901.34;4996112;28;1918;-40
2023/03/15 07:51:04;;;;;;;;;;;;;;;15.87;45.36;99902.56;4985022;28;1078;-40
2023/03/15 07:53:29;;;;;;;;;;;;;;;15.67;45.73;99896.16;4979928;28;1182;-46
2023/03/15 07:55:55;;;;;;;;;;;;;;;15.50;46.17;99898.47;4987741;28;1263;-40
2023/03/15 07:58:20;;;;;;;;;;;;;;;15.30;46.65;99900.28;4977798;28;1299;-38
2023/03/15 08:00:46;;;;;;;;;;;;;;;16.89;43.08;99908.75;4980530;28;1334;-42
2023/03/15 08:03:11;;;;;;;;;;;;;;;16.87;42.99;99901.88;4984289;28;1318;-43
2023/03/15 08:05:37;;;;;;;;;;;;;;;16.10;44.60;99906.41;4986733;28;1334;-38
2023/03/15 08:08:02;;;;;;;;;;;;;;;15.83;45.46;99901.50;4989338;28;1910;-40
2023/03/15 08:10:28;;;;;;;;;;;;;;;15.55;46.07;99890.22;4988882;28;1409;-43
2023/03/15 08:12:53;;;;;;;;;;;;;;;15.42;46.44;99904.56;4991687;28;1307;-41
2023/03/15 08:15:19;;;;;;;;;;;;;;;16.07;45.06;99896.03;4981087;28;1263;-40
2023/03/15 08:17:45;;;;;;;;;;;;;;;17.06;42.29;99905.47;4987019;28;1185;-40
2023/03/15 08:20:13;;;;;;;;;;;;;;;16.12;44.58;99903.38;5000487;28;1319;-36
2023/03/15 08:22:43;;;;;;;;;;;;;;;15.77;45.51;99894.41;5000308;28;1140;-41
2023/03/15 08:25:09;;;;;;;;;;;;;;;15.56;45.91;99897.34;4991189;28;1061;-39
2023/03/15 08:27:34;;;;;;;;;;;;;;;15.39;46.47;99892.28;4989105;28;1428;-42
2023/03/15 08:30:00;;;;;;;;;;;;;;;16.06;45.12;99894.38;4987008;28;1986;-40
2023/03/15 08:32:25;;;;;;;;;;;;;;;17.37;41.71;99891.22;4995130;28;1369;-40
2023/03/15 08:34:52;;;;;;;;;;;;;;;16.39;43.87;99889.88;4991570;28;1345;-40
2023/03/15 08:37:17;;;;;;;;;;;;;;;15.85;45.26;99875.44;4994564;28;1231;-41
2023/03/15 08:39:43;;;;;;;;;;;;;;;15.70;45.79;99881.84;4988830;28;1349;-38
2023/03/15 08:42:08;;;;;;;;;;;;;;;15.49;46.10;99885.91;4992132;28;1344;-40
2023/03/15 08:44:34;;;;;;;;;;;;;;;15.38;46.57;99893.41;4994232;28;1384;-36
2023/03/15 08:46:59;;;;;;;;;;;;;;;15.57;46.05;99888.00;4987041;28;1321;-36
2023/03/15 08:49:25;;;;;;;;;;;;;;;17.14;42.52;99887.50;4987367;28;1981;-40
2023/03/15 08:51:50;;;;;;;;;;;;;;;16.34;44.18;99886.38;5000048;28;1123;-44
2023/03/15 08:54:16;;;;;;;;;;;;;;;15.88;45.36;99885.00;4985877;28;1440;-41
2023/03/15 08:56:41;;;;;;;;;;;;;;;15.63;45.94;99891.53;4989081;28;1081;-39
2023/03/15 08:59:07;;;;;;;;;;;;;;;15.45;46.13;99882.91;4995460;28;1131;-43
2023/03/15 09:01:33;;;;;;;;;;;;;;;16.28;44.62;99888.38;4989658;28;1330;-42
2023/03/15 09:04:00;;;;;;;;;;;;;;;17.23;42.09;99871.16;4991528;28;1321;-42
2023/03/15 09:06:26;;;;;;;;;;;;;;;16.17;44.72;99884.13;4998037;28;1337;-40
2023/03/15 09:08:52;;;;;;;;;;;;;;;15.82;45.41;99877.94;4992382;28;1971;-36
2023/03/15 09:11:18;;;;;;;;;;;;;;;15.61;45.93;99871.81;4999187;28;1434;-41
2023/03/15 09:13:43;;;;;;;;;;;;;;;15.52;46.31;99866.16;4985818;28;1524;-40
2023/03/15 09:16:09;;;;;;;;;;;;;;;15.33;46.74;99866.88;4998990;28;1076;-44
2023/03/15 09:18:34;;;;;;;;;;;;;;;16.30;44.64;99864.22;4998515;28;1124;-38
2023/03/15 09:21:00;;;;;;;;;;;;;;;17.40;42.03;99870.59;4999364;28;1108;-45
2023/03/15 09:23:26;;;;;;;;;;;;;;;16.36;44.21;99864.97;4999176;28;1391;-44
2023/03/15 09:25:51;;;;;;;;;;;;;;;15.88;45.36;99865.81;4999238;28;1275;-42
2023/03/15 09:28:17;;;;;;;;;;;;;;;15.63;46.20;99859.47;4999396;28;1972;-43
2023/03/15 09:30:42;;;;;;;;;;;;;;;15.50;46.33;99862.88;4998834;28;1243;-45
2023/03/15 09:33:08;;;;;;;;;;;;;;;15.36;46.84;99860.81;4999205;28;1212;-39
2023/03/15 09:35:33;;;;;;;;;;;;;;;15.28;46.75;99858.69;4998943;28;1224;-40
2023/03/15 09:37:59;;;;;;;;;;;;;;;16.85;43.11;99850.00;4990101;28;1591;-44
2023/03/15 09:40:31;;;;;;;;;;;;;;;16.72;43.28;99851.56;4988218;28;1334;-42
2023/03/15 09:42:57;;;;;;;;;;;;;;;16.01;45.11;99845.09;4995976;28;1329;-46
2023/03/15 09:45:40;;;;;;;;;;;;;;;15.72;45.96;99845.94;4990555;28;1282;-40
2023/03/15 09:48:10;;;;;;;;;;;;;;;15.51;46.41;99837.91;4986589;28;1903;-43
2023/03/15 09:50:50;;;;;;;;;;;;;;;15.29;46.76;99827.47;4987899;28;1382;-42
2023/03/15 09:53:26;;;;;;;;;;;;;;;16.61;44.10;99841.84;4984282;28;1267;-43
2023/03/15 09:55:52;;;;;;;;;;;;;;;17.32;42.25;99835.53;4995660;28;1307;-41
2023/03/15 09:58:19;;;;;;;;;;;;;;;16.25;44.71;99832.16;4995777;28;1045;-44
2023/03/15 10:00:46;;;;;;;;;;;;;;;15.87;45.64;99839.50;4993411;28;1408;-40
2023/03/15 10:03:32;;;;;;;;;;;;;;;15.66;46.12;99831.47;4992664;28;1350;-39
2023/03/15 10:05:59;;;;;;;;;;;;;;;15.48;46.57;99832.22;4997637;28;1428;-38
2023/03/15 10:08:24;;;;;;;;;;;;;;;15.56;46.27;99831.59;4997959;28;1898;-40
2023/03/15 10:10:55;;;;;;;;;;;;;;;17.13;42.72;99827.38;5029743;28;1072;-43
2023/03/15 10:13:24;;;;;;;;;;;;;;;16.57;43.71;99827.91;5029899;28;1068;-41
2023/03/15 10:15:57;;;;;;;;;;;;;;;15.98;45.55;99816.34;5016002;28;1119;-42
2023/03/15 10:18:26;;;;;;;;;;;;;;;15.70;45.78;99820.75;5029766;28;1105;-44
2023/03/15 10:20:57;;;;;;;;;;;;;;;15.47;46.55;99822.34;4991887;28;1317;-38
2023/03/15 10:23:25;;;;;;;;;;;;;;;15.47;46.51;99814.13;4984142;28;1349;-41
2023/03/15 10:25:51;;;;;;;;;;;;;;;17.08;43.10;99814.53;5026566;28;1317;-39
2023/03/15 10:28:19;;;;;;;;;;;;;;;16.63;43.95;99803.94;5028703;28;1905;-43
2023/03/15 10:30:45;;;;;;;;;;;;;;;15.97;45.30;99797.44;4997747;28;1135;-42
2023/03/15 10:33:13;;;;;;;;;;;;;;;15.73;45.98;99793.56;4997937;28;1144;-43
2023/03/15 10:35:38;;;;;;;;;;;;;;;15.50;46.69;99795.19;5026062;28;1329;-38
2023/03/15 10:38:18;;;;;;;;;;;;;;;15.35;46.97;99795.38;4984539;28;862;-41
2023/03/15 10:40:44;;;;;;;;;;;;;;;15.84;45.97;99783.34;4997914;28;1110;-38
2023/03/15 10:43:16;;;;;;;;;;;;;;;17.26;42.61;99782.63;4997541;28;1112;-40
2023/03/15 10:45:42;;;;;;;;;;;;;;;16.47;44.29;99775.13;4996930;28;979;-39
2023/03/15 10:48:08;;;;;;;;;;;;;;;15.91;45.43;99766.53;4996410;28;1907;-42
2023/03/15 10:50:34;;;;;;;;;;;;;;;15.70;46.09;99754.97;4996857;28;1132;-43
2023/03/15 10:53:00;;;;;;;;;;;;;;;15.53;46.71;99755.44;5028629;28;1323;-38
2023/03/15 10:55:33;;;;;;;;;;;;;;;15.37;47.10;99771.22;4996902;28;1048;-39
2023/03/15 10:57:59;;;;;;;;;;;;;;;16.73;43.74;99742.56;4997128;28;1003;-37
2023/03/15 11:00:25;;;;;;;;;;;;;;;17.01;42.89;99756.41;4981668;28;1129;-39
2023/03/15 11:03:00;;;;;;;;;;;;;;;16.10;45.16;99758.31;4983372;28;1125;-44
2023/03/15 11:05:28;;;;;;;;;;;;;;;15.75;46.18;99757.63;4981986;28;1235;-44
2023/03/15 11:07:54;;;;;;;;;;;;;;;15.54;46.56;99741.47;4996794;28;1068;-40
2023/03/15 11:10:21;;;;;;;;;;;;;;;16.08;45.59;99741.34;4996881;28;1918;-44
2023/03/15 11:12:47;;;;;;;;;;;;;;;17.22;42.74;99737.63;4997058;28;1107;-41
2023/03/15 11:15:13;;;;;;;;;;;;;;;16.22;44.83;99746.94;5028858;28;1117;-43
2023/03/15 11:17:42;;;;;;;;;;;;;;;15.82;46.00;99740.88;4997352;28;1598;-39
2023/03/15 11:20:24;;;;;;;;;;;;;;;15.60;46.54;99723.03;4996992;28;1140;-43
2023/03/15 11:22:50;;;;;;;;;;;;;;;15.46;46.68;99731.13;4996963;28;1128;-41
2023/03/15 11:25:16;;;;;;;;;;;;;;;15.33;47.32;99729.91;4995760;28;1084;-41
2023/03/15 11:27:45;;;;;;;;;;;;;;;16.84;43.76;99726.75;4988875;28;1155;-44
2023/03/15 11:30:20;;;;;;;;;;;;;;;16.80;43.67;99726.53;4989892;28;1906;-43
2023/03/15 11:32:47;;;;;;;;;;;;;;;16.01;45.52;99716.22;5014320;28;1318;-43
2023/03/15 11:35:19;;;;;;;;;;;;;;;15.69;46.30;99721.25;4977923;28;1243;-45
2023/03/15 11:37:46;;;;;;;;;;;;;;;15.53;46.59;99706.94;4993769;28;1208;-40
2023/03/15 11:40:12;;;;;;;;;;;;;;;15.49;46.91;99713.31;5029734;28;1481;-40
2023/03/15 11:42:40;;;;;;;;;;;;;;;17.08;43.15;99715.63;5001096;28;1223;-43
2023/03/15 11:45:11;;;;;;;;;;;;;;;16.26;44.85;99706.81;4995216;28;1271;-43
2023/03/15 11:47:57;;;;;;;;;;;;;;;15.80;46.05;99704.72;4995519;28;1272;-41
2023/03/15 11:50:22;;;;;;;;;;;;;;;15.54;46.88;99700.38;5000603;28;1984;-40
2023/03/15 11:52:48;;;;;;;;;;;;;;;15.49;47.10;99694.13;5000894;28;1057;-42
2023/03/15 11:55:15;;;;;;;;;;;;;;;17.07;43.13;99690.13;5032404;28;1234;-45
2023/03/15 11:57:41;;;;;;;;;;;;;;;16.53;44.33;99688.84;4999756;28;1232;-43
2023/03/15 12:00:21;;;;;;;;;;;;;;;15.96;45.64;99697.09;4999627;28;1092;-41
2023/03/15 12:02:48;;;;;;;;;;;;;;;15.71;46.42;99697.13;5000936;28;1180;-41
2023/03/15 12:05:33;;;;;;;;;;;;;;;15.53;47.08;99700.66;5000345;28;1307;-41
2023/03/15 12:07:59;;;;;;;;;;;;;;;15.49;47.02;99699.59;5000339;28;1568;-39
2023/03/15 12:10:31;;;;;;;;;;;;;;;17.03;43.63;99697.34;5000871;28;1974;-40
2023/03/15 12:12:57;;;;;;;;;;;;;;;16.68;44.17;99698.75;5001031;28;1348;-41
2023/03/15 12:15:22;;;;;;;;;;;;;;;16.01;45.98;99703.31;4988642;28;1119;-43
2023/03/15 12:17:48;;;;;;;;;;;;;;;15.72;46.42;99704.25;4981100;28;1212;-40
2023/03/15 12:20:32;;;;;;;;;;;;;;;15.62;46.89;99709.84;4989076;28;1239;-40
2023/03/15 12:23:16;;;;;;;;;;;;;;;15.46;47.16;99709.22;4989135;28;1263;-43
2023/03/15 12:25:50;;;;;;;;;;;;;;;17.02;43.52;99700.38;4987142;28;1239;-41
2023/03/15 12:28:20;;;;;;;;;;;;;;;16.57;44.58;99707.13;4997462;28;1977;-39
2023/03/15 12:30:45;;;;;;;;;;;;;;;15.99;45.97;99708.31;4995096;28;1278;-42
2023/03/15 12:33:13;;;;;;;;;;;;;;;15.78;46.53;99706.91;5030653;28;1170;-42
2023/03/15 12:35:38;;;;;;;;;;;;;;;15.60;47.04;99706.59;4996790;28;1173;-38
2023/03/15 12:38:08;;;;;;;;;;;;;;;15.46;47.51;99706.47;4990680;28;1220;-40
2023/03/15 12:40:37;;;;;;;;;;;;;;;15.87;46.57;99710.66;4995185;28;1120;-38
2023/03/15 12:43:02;;;;;;;;;;;;;;;17.33;42.81;99722.59;4999809;28;1052;-43
2023/03/15 12:45:34;;;;;;;;;;;;;;;16.55;44.61;99716.78;4998695;28;1689;-39
2023/03/15 12:48:20;;;;;;;;;;;;;;;16.01;46.06;99711.56;4999375;28;1016;-40
2023/03/15 12:50:58;;;;;;;;;;;;;;;15.72;46.87;99704.25;4995782;28;1089;-41
2023/03/15 12:53:26;;;;;;;;;;;;;;;15.57;46.98;99708.00;4999641;28;1109;-42
2023/03/15 12:55:52;;;;;;;;;;;;;;;15.46;47.34;99711.13;4999576;28;1029;-42
2023/03/15 12:58:18;;;;;;;;;;;;;;;15.42;47.46;99710.06;4999220;28;1017;-42
2023/03/15 13:00:44;;;;;;;;;;;;;;;17.03;43.70;99713.81;4998075;28;950;-41
2023/03/15 13:03:22;;;;;;;;;;;;;;;16.35;45.33;99712.44;4998619;28;1235;-39
2023/03/15 13:06:07;;;;;;;;;;;;;;;15.83;46.54;99717.84;4985836;28;1181;-41